createdAt,value
2023-05-04T00:02:17.921Z,72.25
2023-05-04T00:04:44.599Z,71.68
2023-05-04T00:07:11.707Z,70.69
2023-05-04T00:09:38.554Z,69.79
2023-05-04T00:12:05.741Z,69.56
2023-05-04T00:14:32.335Z,68.16
2023-05-04T00:16:59.130Z,69.19
2023-05-04T00:19:25.959Z,69.14
2023-05-04T00:21:52.523Z,70.30
2023-05-04T00:24:19.171Z,70.03
2023-05-04T00:26:45.855Z,69.72
2023-05-04T00:29:12.473Z,69.39
2023-05-04T00:31:39.257Z,68.93
2023-05-04T00:34:05.891Z,69.58
2023-05-04T00:36:33.757Z,68.61
2023-05-04T00:39:00.441Z,68.64
2023-05-04T00:41:27.130Z,69.71
2023-05-04T00:43:53.740Z,67.81
2023-05-04T00:46:20.608Z,68.51
2023-05-04T00:48:50.027Z,73.95
2023-05-04T00:51:19.329Z,71.98
2023-05-04T00:53:46.072Z,71.55
2023-05-04T00:56:13.038Z,73.81
2023-05-04T00:58:39.700Z,74.82
2023-05-04T01:01:06.415Z,74.82
2023-05-04T01:03:33.824Z,76.28
2023-05-04T01:06:06.669Z,75.27
2023-05-04T01:08:41.008Z,75.11
2023-05-04T01:11:11.309Z,75.66
2023-05-04T01:13:40.141Z,74.53
2023-05-04T01:16:07.073Z,72.97
2023-05-04T01:18:33.694Z,71.53
2023-05-04T01:21:00.430Z,73.29
2023-05-04T01:23:27.557Z,72.26
2023-05-04T01:26:18.908Z,72.78
2023-05-04T01:28:53.247Z,72.45
2023-05-04T01:31:22.954Z,72.73
2023-05-04T01:33:53.078Z,72.75
2023-05-04T01:36:21.599Z,71.65
2023-05-04T01:38:55.537Z,72.90
2023-05-04T01:41:22.169Z,70.92
2023-05-04T01:43:48.921Z,70.68
2023-05-04T01:46:15.728Z,72.16
2023-05-04T01:48:42.336Z,70.21
2023-05-04T01:51:09.024Z,73.02
2023-05-04T01:53:36.236Z,73.96
2023-05-04T01:56:03.252Z,74.14
2023-05-04T01:58:30.003Z,71.33
2023-05-04T02:00:59.281Z,69.88
2023-05-04T02:03:26.527Z,72.12
2023-05-04T02:05:53.318Z,70.98
2023-05-04T02:08:19.965Z,69.86
2023-05-04T02:10:46.706Z,70.69
2023-05-04T02:13:13.405Z,70.65
2023-05-04T02:15:40.546Z,71.37
2023-05-04T02:18:07.343Z,73.21
2023-05-04T02:20:34.119Z,74.98
2023-05-04T02:23:00.815Z,74.59
2023-05-04T02:25:27.527Z,73.54
2023-05-04T02:27:54.248Z,74.35
2023-05-04T02:30:21.023Z,76.34
2023-05-04T02:32:47.784Z,73.06
2023-05-04T02:35:14.436Z,72.11
2023-05-04T02:37:41.837Z,72.49
2023-05-04T02:40:09.071Z,73.92
2023-05-04T02:42:35.704Z,70.77
2023-05-04T02:45:02.332Z,71.33
2023-05-04T02:47:29.111Z,70.48
2023-05-04T02:49:55.824Z,70.82
2023-05-04T02:52:22.432Z,69.69
2023-05-04T02:54:50.131Z,68.76
2023-05-04T02:57:18.382Z,68.86
2023-05-04T02:59:45.001Z,69.80
2023-05-04T03:02:11.787Z,69.24
2023-05-04T03:04:38.517Z,69.70
2023-05-04T03:07:05.205Z,72.12
2023-05-04T03:09:31.880Z,73.93
2023-05-04T03:11:58.498Z,70.80
2023-05-04T03:14:25.160Z,73.57
2023-05-04T03:16:51.990Z,73.43
2023-05-04T03:19:19.168Z,75.20
2023-05-04T03:21:46.464Z,74.98
2023-05-04T03:24:13.211Z,71.38
2023-05-04T03:26:39.855Z,70.69
2023-05-04T03:29:06.636Z,69.99
2023-05-04T03:31:33.344Z,69.00
2023-05-04T03:34:00.069Z,69.58
2023-05-04T03:36:26.732Z,71.12
2023-05-04T03:38:53.434Z,70.75
2023-05-04T03:41:21.226Z,71.05
2023-05-04T03:43:47.819Z,71.26
2023-05-04T03:46:14.550Z,74.48
2023-05-04T03:48:42.368Z,74.36
2023-05-04T03:51:09.032Z,73.32
2023-05-04T03:53:35.888Z,72.08
2023-05-04T03:56:03.519Z,71.50
2023-05-04T03:58:30.316Z,73.47
2023-05-04T04:00:57.044Z,78.05
2023-05-04T04:03:23.874Z,77.19
2023-05-04T04:05:50.866Z,75.80
2023-05-04T04:08:17.484Z,74.46
2023-05-04T04:10:44.161Z,73.53
2023-05-04T04:13:10.990Z,74.17
2023-05-04T04:15:37.679Z,73.96
2023-05-04T04:18:04.434Z,79.68
2023-05-04T04:20:31.195Z,78.19
2023-05-04T04:22:57.818Z,76.07
2023-05-04T04:25:24.536Z,78.94
2023-05-04T04:27:51.644Z,79.74
2023-05-04T04:30:18.337Z,79.60
2023-05-04T04:32:45.835Z,77.70
2023-05-04T04:35:14.144Z,73.79
2023-05-04T04:37:40.933Z,74.00
2023-05-04T04:40:08.102Z,73.00
2023-05-04T04:42:34.894Z,74.47
2023-05-04T04:45:05.092Z,73.62
2023-05-04T04:47:33.066Z,74.33
2023-05-04T04:49:59.969Z,74.11
2023-05-04T04:52:26.651Z,76.55
2023-05-04T04:54:53.233Z,75.37
2023-05-04T04:57:19.927Z,77.21
2023-05-04T04:59:46.551Z,78.07
2023-05-04T05:02:13.146Z,75.47
2023-05-04T05:04:41.477Z,75.96
2023-05-04T05:07:10.962Z,74.34
2023-05-04T05:09:38.476Z,75.01
2023-05-04T05:12:05.558Z,76.35
2023-05-04T05:14:32.213Z,80.46
2023-05-04T05:16:59.625Z,78.12
2023-05-04T05:19:26.302Z,74.35
2023-05-04T05:21:53.016Z,73.40
2023-05-04T05:24:19.680Z,73.41
2023-05-04T05:26:46.309Z,73.36
2023-05-04T05:29:12.962Z,72.66
2023-05-04T05:31:39.600Z,74.89
2023-05-04T05:34:06.240Z,75.75
2023-05-04T05:36:32.847Z,75.29
2023-05-04T05:38:59.474Z,74.94
2023-05-04T05:41:26.122Z,75.53
2023-05-04T05:43:52.735Z,76.25
2023-05-04T05:46:19.369Z,76.63
2023-05-04T05:48:46.056Z,79.90
2023-05-04T05:51:12.647Z,79.02
2023-05-04T05:53:39.339Z,82.36
2023-05-04T05:56:06.128Z,80.83
2023-05-04T05:58:32.734Z,76.68
2023-05-04T06:00:59.343Z,76.79
2023-05-04T06:03:26.539Z,78.77
2023-05-04T06:05:53.288Z,79.63
2023-05-04T06:08:19.948Z,75.66
2023-05-04T06:10:46.588Z,74.32
2023-05-04T06:13:13.258Z,76.92
2023-05-04T06:15:39.924Z,78.34
2023-05-04T06:18:06.630Z,79.54
2023-05-04T06:20:33.412Z,76.62
2023-05-04T06:23:00.066Z,77.12
2023-05-04T06:25:26.697Z,79.09
2023-05-04T06:27:53.414Z,80.07
2023-05-04T06:30:24.261Z,76.49
2023-05-04T06:32:51.472Z,76.17
2023-05-04T06:35:19.095Z,73.15
2023-05-04T06:37:45.957Z,72.21
2023-05-04T06:40:13.409Z,69.94
2023-05-04T06:42:40.444Z,70.23
2023-05-04T06:45:07.501Z,69.68
2023-05-04T06:47:37.875Z,72.13
2023-05-04T06:50:11.927Z,73.63
2023-05-04T06:52:39.928Z,75.23
2023-05-04T06:55:07.743Z,73.79
2023-05-04T06:57:34.567Z,73.86
2023-05-04T07:00:03.315Z,73.96
2023-05-04T07:02:30.408Z,72.72
2023-05-04T07:04:57.692Z,72.22
2023-05-04T07:07:24.400Z,70.13
2023-05-04T07:09:51.002Z,71.14
2023-05-04T07:12:18.614Z,70.16
2023-05-04T07:14:45.309Z,72.30
2023-05-04T07:17:11.921Z,72.23
2023-05-04T07:19:38.615Z,73.88
2023-05-04T07:22:05.270Z,72.85
2023-05-04T07:24:32.105Z,71.70
2023-05-04T07:26:58.729Z,71.93
2023-05-04T07:29:26.510Z,72.50
2023-05-04T07:31:53.161Z,73.27
2023-05-04T07:34:20.216Z,73.00
2023-05-04T07:36:48.000Z,71.51
2023-05-04T07:39:16.610Z,72.33
2023-05-04T07:41:43.187Z,72.20
2023-05-04T07:44:11.291Z,75.13
2023-05-04T07:46:38.881Z,75.36
2023-05-04T07:49:06.020Z,73.35
2023-05-04T07:51:32.643Z,75.23
2023-05-04T07:53:59.224Z,77.61
2023-05-04T07:56:25.891Z,74.79
2023-05-04T07:58:52.450Z,71.60
2023-05-04T08:01:19.134Z,71.82
2023-05-04T08:03:46.106Z,72.64
2023-05-04T08:06:13.263Z,74.17
2023-05-04T08:08:39.973Z,72.76
2023-05-04T08:11:19.199Z,73.29
2023-05-04T08:13:50.649Z,72.73
2023-05-04T08:16:17.463Z,75.59
2023-05-04T08:18:44.124Z,76.06
2023-05-04T08:21:10.840Z,79.53
2023-05-04T08:23:37.454Z,80.92
2023-05-04T08:26:04.866Z,77.55
2023-05-04T08:28:35.669Z,75.40
2023-05-04T08:31:03.163Z,75.60
2023-05-04T08:33:30.347Z,75.24
2023-05-04T08:35:56.984Z,76.34
2023-05-04T08:38:23.693Z,75.40
2023-05-04T08:40:50.735Z,73.58
2023-05-04T08:43:17.441Z,73.62
2023-05-04T08:45:45.374Z,74.23
2023-05-04T08:48:12.002Z,72.57
2023-05-04T08:50:38.788Z,70.57
2023-05-04T08:53:13.845Z,72.59
2023-05-04T08:55:43.855Z,74.03
2023-05-04T08:58:12.879Z,76.04
2023-05-04T09:00:41.379Z,78.59
2023-05-04T09:03:10.576Z,74.97
2023-05-04T09:05:38.420Z,73.47
2023-05-04T09:08:05.791Z,70.54
2023-05-04T09:10:33.513Z,70.43
2023-05-04T09:13:00.612Z,70.21
2023-05-04T09:15:27.476Z,68.04
2023-05-04T09:18:05.571Z,70.81
2023-05-04T09:20:44.737Z,70.89
2023-05-04T09:23:12.026Z,72.10
2023-05-04T09:25:55.787Z,72.10
2023-05-04T09:28:36.384Z,70.92
2023-05-04T09:31:04.222Z,69.35
2023-05-04T09:33:32.077Z,69.62
2023-05-04T09:36:17.154Z,68.85
2023-05-04T09:38:44.353Z,68.30
2023-05-04T09:41:11.787Z,68.68
2023-05-04T09:43:43.917Z,68.45
2023-05-04T09:46:18.393Z,68.03
2023-05-04T09:48:53.115Z,66.22
2023-05-04T09:51:22.550Z,68.28
2023-05-04T09:53:50.511Z,69.09
2023-05-04T09:56:38.871Z,70.13
2023-05-04T09:59:05.973Z,68.60
2023-05-04T10:01:33.091Z,68.41
2023-05-04T10:04:00.068Z,69.55
2023-05-04T10:06:30.160Z,69.53
2023-05-04T10:08:59.254Z,69.24
2023-05-04T10:11:26.745Z,70.13
2023-05-04T10:13:57.174Z,71.52
2023-05-04T10:16:37.430Z,71.69
2023-05-04T10:19:39.652Z,70.26
2023-05-04T10:22:18.539Z,72.64
2023-05-04T10:25:24.863Z,71.05
2023-05-04T10:28:03.647Z,68.94
2023-05-04T10:30:30.608Z,69.88
2023-05-04T10:32:58.867Z,70.79
2023-05-04T10:35:25.977Z,69.80
2023-05-04T10:37:56.670Z,67.74
2023-05-04T10:40:40.033Z,66.92
2023-05-04T10:43:08.320Z,65.86
2023-05-04T10:45:39.772Z,67.98
2023-05-04T10:48:08.050Z,66.34
2023-05-04T10:50:45.849Z,67.98
2023-05-04T10:53:14.513Z,66.28
2023-05-04T10:55:46.166Z,65.06
2023-05-04T10:58:16.642Z,64.39
2023-05-04T11:00:45.882Z,66.81
2023-05-04T11:03:14.242Z,66.88
2023-05-04T11:05:43.268Z,65.61
2023-05-04T11:08:22.775Z,64.50
2023-05-04T11:11:01.951Z,64.16
2023-05-04T11:13:34.390Z,65.47
2023-05-04T11:16:01.783Z,66.23
2023-05-04T11:18:28.691Z,65.16
2023-05-04T11:20:58.408Z,66.77
2023-05-04T11:23:25.381Z,68.87
2023-05-04T11:25:52.550Z,67.08
2023-05-04T11:28:19.243Z,66.83
2023-05-04T11:30:47.714Z,68.39
2023-05-04T11:33:15.678Z,65.59
2023-05-04T11:35:44.246Z,65.59
2023-05-04T11:38:11.066Z,68.69
2023-05-04T11:40:41.144Z,64.36
2023-05-04T11:43:10.688Z,65.96
2023-05-04T11:45:40.133Z,66.61
2023-05-04T11:48:08.518Z,66.60
2023-05-04T11:50:35.605Z,65.33
2023-05-04T11:53:10.566Z,65.80
2023-05-04T11:55:38.194Z,65.38
2023-05-04T11:58:06.312Z,68.42
2023-05-04T12:00:38.758Z,68.05
2023-05-04T12:03:13.143Z,66.32
2023-05-04T12:05:50.889Z,65.70
2023-05-04T12:08:27.454Z,66.03
2023-05-04T12:11:11.182Z,68.85
2023-05-04T12:13:38.074Z,65.06
2023-05-04T12:16:12.679Z,66.61
2023-05-04T12:18:39.751Z,64.24
2023-05-04T12:21:19.863Z,65.09
2023-05-04T12:23:47.517Z,67.32
2023-05-04T12:26:16.264Z,66.07
2023-05-04T12:28:45.129Z,65.42
2023-05-04T12:31:11.827Z,63.00
2023-05-04T12:33:38.519Z,62.54
2023-05-04T12:36:06.188Z,64.46
2023-05-04T12:38:33.903Z,64.40
2023-05-04T12:41:04.425Z,62.38
2023-05-04T12:43:32.289Z,63.23
2023-05-04T12:45:59.777Z,61.48
2023-05-04T12:48:28.404Z,65.23
2023-05-04T12:50:55.113Z,64.99
2023-05-04T12:53:24.517Z,62.06
2023-05-04T12:55:51.360Z,64.11
2023-05-04T12:58:17.990Z,63.80
2023-05-04T13:00:45.972Z,66.54
2023-05-04T13:03:13.215Z,66.41
2023-05-04T13:05:40.313Z,66.37
2023-05-04T13:08:06.961Z,63.77
2023-05-04T13:10:33.641Z,61.90
2023-05-04T13:13:00.557Z,62.56
2023-05-04T13:15:28.044Z,61.55
2023-05-04T13:17:54.949Z,60.72
2023-05-04T13:20:22.711Z,57.19
2023-05-04T13:22:50.600Z,58.58
2023-05-04T13:25:17.306Z,57.46
2023-05-04T13:27:44.088Z,59.65
2023-05-04T13:30:11.108Z,60.71
2023-05-04T13:32:37.970Z,60.57
2023-05-04T13:35:05.065Z,62.34
2023-05-04T13:37:31.741Z,64.03
2023-05-04T13:39:59.620Z,65.56
2023-05-04T13:42:26.309Z,64.84
2023-05-04T13:44:53.054Z,66.33
2023-05-04T13:47:19.646Z,65.15
2023-05-04T13:49:46.538Z,64.17
2023-05-04T13:52:13.535Z,64.75
2023-05-04T13:54:40.288Z,63.92
2023-05-04T13:57:07.392Z,63.40
2023-05-04T13:59:34.289Z,63.87
2023-05-04T14:02:01.997Z,63.42
2023-05-04T14:04:28.759Z,63.99
2023-05-04T14:06:57.010Z,64.12
2023-05-04T14:09:23.922Z,63.61
2023-05-04T14:11:50.588Z,64.50
2023-05-04T14:14:17.385Z,63.38
2023-05-04T14:16:44.071Z,63.38
2023-05-04T14:19:10.754Z,62.13
2023-05-04T14:21:37.386Z,63.72
2023-05-04T14:24:04.521Z,64.74
2023-05-04T14:26:34.656Z,63.05
2023-05-04T14:29:01.939Z,63.41
2023-05-04T14:31:28.694Z,62.59
2023-05-04T14:33:57.035Z,61.60
2023-05-04T14:36:23.835Z,62.88
2023-05-04T14:38:50.648Z,62.33
2023-05-04T14:41:17.597Z,60.40
2023-05-04T14:43:44.304Z,61.82
2023-05-04T14:46:12.863Z,61.65
2023-05-04T14:48:39.593Z,61.16
2023-05-04T14:51:06.501Z,61.34
2023-05-04T14:53:37.164Z,61.12
2023-05-04T14:56:05.456Z,60.81
2023-05-04T14:58:32.112Z,59.74
2023-05-04T15:00:58.841Z,60.54
2023-05-04T15:03:26.012Z,60.64
2023-05-04T15:05:52.916Z,64.02
2023-05-04T15:08:19.556Z,64.45
2023-05-04T15:10:46.440Z,63.75
2023-05-04T15:13:15.800Z,63.11
2023-05-04T15:15:42.908Z,62.10
2023-05-04T15:18:10.217Z,65.64
2023-05-04T15:20:38.656Z,64.44
2023-05-04T15:23:10.652Z,63.75
2023-05-04T15:25:41.928Z,62.51
2023-05-04T15:28:11.056Z,61.57
2023-05-04T15:30:42.046Z,63.75
2023-05-04T15:33:09.198Z,63.18
2023-05-04T15:35:36.742Z,63.72
2023-05-04T15:38:03.606Z,65.59
2023-05-04T15:40:31.427Z,63.52
2023-05-04T15:42:58.186Z,62.19
2023-05-04T15:45:24.954Z,62.19
2023-05-04T15:47:53.544Z,62.78
2023-05-04T15:50:21.116Z,62.23
2023-05-04T15:52:47.783Z,61.46
2023-05-04T15:55:25.285Z,62.40
2023-05-04T15:57:52.909Z,61.60
2023-05-04T16:00:20.935Z,61.93
2023-05-04T16:02:47.805Z,61.01
2023-05-04T16:05:14.698Z,63.01
2023-05-04T16:07:41.584Z,61.59
2023-05-04T16:10:09.443Z,61.82
2023-05-04T16:12:36.513Z,62.53
2023-05-04T16:15:03.322Z,61.30
2023-05-04T16:17:35.073Z,61.90
2023-05-04T16:20:02.611Z,61.04
2023-05-04T16:22:29.460Z,61.83
2023-05-04T16:24:56.155Z,61.72
2023-05-04T16:27:28.814Z,60.60
2023-05-04T16:29:56.073Z,60.13
2023-05-04T16:32:22.809Z,59.33
2023-05-04T16:34:49.561Z,60.23
2023-05-04T16:37:17.428Z,60.55
2023-05-04T16:39:44.025Z,59.37
2023-05-04T16:42:10.645Z,60.26
2023-05-04T16:44:37.403Z,59.70
2023-05-04T16:47:04.116Z,61.40
2023-05-04T16:49:30.871Z,61.51
2023-05-04T16:51:57.552Z,62.81
2023-05-04T16:54:24.264Z,62.98
2023-05-04T16:56:51.127Z,63.73
2023-05-04T16:59:17.830Z,63.70
2023-05-04T17:01:46.127Z,62.57
2023-05-04T17:04:12.775Z,63.75
2023-05-04T17:06:39.553Z,64.50
2023-05-04T17:09:07.048Z,63.89
2023-05-04T17:11:34.471Z,61.88
2023-05-04T17:14:01.359Z,60.63
2023-05-04T17:16:28.164Z,62.24
2023-05-04T17:18:54.988Z,62.21
2023-05-04T17:21:21.645Z,61.96
2023-05-04T17:23:48.273Z,62.68
2023-05-04T17:26:14.865Z,62.14
2023-05-04T17:28:41.629Z,62.60
2023-05-04T17:31:11.531Z,63.25
2023-05-04T17:33:38.778Z,63.70
2023-05-04T17:36:07.593Z,63.96
2023-05-04T17:38:34.398Z,63.69
2023-05-04T17:41:01.055Z,65.18
2023-05-04T17:43:30.572Z,64.46
2023-05-04T17:45:57.218Z,65.14
2023-05-04T17:48:24.273Z,63.85
2023-05-04T17:50:51.482Z,65.29
2023-05-04T17:53:18.176Z,66.13
2023-05-04T17:55:44.786Z,66.31
2023-05-04T17:58:11.407Z,66.42
2023-05-04T18:00:38.066Z,65.29
2023-05-04T18:03:04.796Z,65.01
2023-05-04T18:05:32.153Z,64.07
2023-05-04T18:07:59.028Z,65.04
2023-05-04T18:10:25.837Z,64.95
2023-05-04T18:12:52.673Z,64.49
2023-05-04T18:15:19.514Z,63.91
2023-05-04T18:17:46.251Z,63.94
2023-05-04T18:20:13.300Z,64.67
2023-05-04T18:22:40.100Z,63.74
2023-05-04T18:25:07.343Z,64.14
2023-05-04T18:27:35.237Z,63.23
2023-05-04T18:30:04.414Z,62.37
2023-05-04T18:32:31.284Z,61.47
2023-05-04T18:34:58.075Z,60.47
2023-05-04T18:37:25.043Z,61.30
2023-05-04T18:39:51.667Z,61.10
2023-05-04T18:42:18.342Z,60.16
2023-05-04T18:44:45.017Z,60.90
2023-05-04T18:47:11.680Z,60.62
2023-05-04T18:49:38.389Z,61.16
2023-05-04T18:52:05.247Z,61.46
2023-05-04T18:54:32.577Z,63.61
2023-05-04T18:56:59.516Z,62.87
2023-05-04T18:59:26.149Z,63.27
2023-05-04T19:01:53.111Z,63.67
2023-05-04T19:04:19.844Z,63.45
2023-05-04T19:06:47.799Z,62.22
2023-05-04T19:09:14.935Z,62.46
2023-05-04T19:11:41.663Z,63.16
2023-05-04T19:14:08.304Z,62.09
2023-05-04T19:16:34.959Z,63.40
2023-05-04T19:19:02.356Z,63.25
2023-05-04T19:21:29.326Z,63.59
2023-05-04T19:23:55.905Z,63.30
2023-05-04T19:26:22.659Z,64.64
2023-05-04T19:28:49.317Z,64.18
2023-05-04T19:31:16.451Z,63.53
2023-05-04T19:33:48.385Z,63.22
2023-05-04T19:36:16.237Z,62.93
2023-05-04T19:38:42.877Z,63.32
2023-05-04T19:41:09.522Z,63.34
2023-05-04T19:43:36.218Z,63.73
2023-05-04T19:46:03.117Z,64.63
2023-05-04T19:48:29.746Z,65.36
2023-05-04T19:50:56.407Z,66.15
2023-05-04T19:53:23.020Z,64.71
2023-05-04T19:55:49.777Z,63.97
2023-05-04T19:58:16.462Z,63.68
2023-05-04T20:00:43.182Z,64.09
2023-05-04T20:03:10.515Z,64.90
2023-05-04T20:05:38.528Z,63.22
2023-05-04T20:08:05.409Z,63.20
2023-05-04T20:10:32.383Z,63.01
2023-05-04T20:12:59.085Z,63.47
2023-05-04T20:15:26.015Z,63.29
2023-05-04T20:17:52.771Z,64.35
2023-05-04T20:20:21.502Z,64.27
2023-05-04T20:22:52.187Z,63.22
2023-05-04T20:25:19.914Z,62.81
2023-05-04T20:27:48.689Z,62.26
2023-05-04T20:30:15.738Z,64.15
2023-05-04T20:32:44.131Z,63.57
2023-05-04T20:35:11.037Z,63.59
2023-05-04T20:37:37.659Z,63.92
2023-05-04T20:40:04.978Z,64.69
2023-05-04T20:42:31.907Z,64.86
2023-05-04T20:44:58.524Z,64.70
2023-05-04T20:47:25.150Z,64.14
2023-05-04T20:49:52.691Z,64.12
2023-05-04T20:52:19.460Z,64.18
2023-05-04T20:54:46.085Z,62.99
2023-05-04T20:57:12.688Z,67.11
2023-05-04T20:59:39.276Z,67.68
2023-05-04T21:02:06.615Z,65.48
2023-05-04T21:04:33.206Z,64.31
2023-05-04T21:06:59.896Z,64.01
2023-05-04T21:09:26.725Z,64.08
2023-05-04T21:11:53.300Z,62.08
2023-05-04T21:14:19.982Z,62.79
2023-05-04T21:16:46.556Z,63.63
2023-05-04T21:19:13.277Z,64.38
2023-05-04T21:21:41.531Z,66.60
2023-05-04T21:24:17.524Z,67.12
2023-05-04T21:26:45.608Z,65.15
2023-05-04T21:29:15.439Z,64.26
2023-05-04T21:31:42.288Z,62.52
2023-05-04T21:34:08.963Z,61.89
2023-05-04T21:36:35.918Z,62.30
2023-05-04T21:39:03.325Z,62.85
2023-05-04T21:41:29.894Z,63.93
2023-05-04T21:43:56.756Z,65.40
2023-05-04T21:46:23.457Z,65.03
2023-05-04T21:48:51.808Z,64.14
2023-05-04T21:51:20.664Z,63.64
2023-05-04T21:53:47.933Z,61.09
2023-05-04T21:56:15.117Z,62.66
2023-05-04T21:58:42.195Z,62.02
2023-05-04T22:01:09.717Z,61.62
2023-05-04T22:03:36.744Z,62.34
2023-05-04T22:06:03.750Z,61.49
2023-05-04T22:08:30.570Z,62.25
2023-05-04T22:10:58.596Z,61.68
2023-05-04T22:13:26.155Z,61.25
2023-05-04T22:15:53.542Z,61.96
2023-05-04T22:18:20.892Z,61.68
2023-05-04T22:20:47.619Z,61.63
2023-05-04T22:23:14.329Z,61.80
2023-05-04T22:25:41.337Z,61.87
2023-05-04T22:28:08.022Z,61.26
2023-05-04T22:30:34.713Z,60.11
2023-05-04T22:33:01.610Z,60.49
2023-05-04T22:35:28.594Z,61.29
2023-05-04T22:37:55.364Z,62.22
2023-05-04T22:40:22.540Z,61.67
2023-05-04T22:42:49.371Z,61.89
2023-05-04T22:45:17.620Z,60.31
2023-05-04T22:47:44.708Z,61.13
2023-05-04T22:50:11.445Z,61.05
2023-05-04T22:52:39.136Z,61.12
2023-05-04T22:55:06.553Z,61.55
2023-05-04T22:57:33.195Z,62.29
2023-05-04T22:59:59.825Z,63.15
2023-05-04T23:02:26.637Z,63.56
2023-05-04T23:04:53.432Z,64.21
2023-05-04T23:07:20.169Z,64.32
2023-05-04T23:09:47.452Z,63.83
2023-05-04T23:12:15.175Z,63.06
2023-05-04T23:14:42.110Z,63.42
2023-05-04T23:17:09.462Z,63.95
2023-05-04T23:19:36.417Z,63.63
2023-05-04T23:22:03.082Z,63.84
2023-05-04T23:24:29.804Z,63.88
2023-05-04T23:26:56.374Z,64.99
2023-05-04T23:29:23.088Z,64.99
2023-05-04T23:31:49.781Z,65.29
2023-05-04T23:34:16.471Z,67.15
2023-05-04T23:36:43.054Z,67.17
2023-05-04T23:39:10.187Z,65.62
2023-05-04T23:41:36.733Z,65.49
2023-05-04T23:44:03.942Z,64.43
2023-05-04T23:46:30.724Z,64.34
2023-05-04T23:48:57.340Z,64.03
2023-05-04T23:51:23.893Z,63.63
2023-05-04T23:53:50.613Z,64.13
2023-05-04T23:56:17.583Z,64.71
2023-05-04T23:58:44.239Z,63.81
